Time;durP1;ratioP1;P1;durP2;ratioP2;P2;SDS_P1;SDS_P2;PMS_P1;PMS_P2;Temp;Humidity;BMP_temperature;BMP_pressure;BME280_temperature;BME280_humidity;BME280_pressure;Samples;Min_cycle;Max_cycle;Signal;HPM_P1;HPM_P2
2021/04/27 00:00:29;;;;;;;;;;;;;;;2.40;77.94;97707.49;1786768;80;20532;-66
2021/04/27 00:02:57;;;;;;;;;;;;;;;2.35;77.94;97711.97;1786587;80;20518;-65
2021/04/27 00:05:25;;;;;;;;;;;;;;;2.33;78.49;97710.06;1786587;80;20479;-66
2021/04/27 00:07:53;;;;;;;;;;;;;;;2.30;77.92;97705.28;1786674;80;20546;-67
2021/04/27 00:10:21;;;;;;;;;;;;;;;2.29;78.47;97707.56;1786727;80;21949;-66
2021/04/27 00:12:50;;;;;;;;;;;;;;;2.24;79.65;97702.13;1786481;80;20514;-66
2021/04/27 00:15:20;;;;;;;;;;;;;;;2.18;80.43;97706.00;1786550;80;20601;-68
2021/04/27 00:17:48;;;;;;;;;;;;;;;2.11;80.59;97700.78;1784528;80;20639;-67
2021/04/27 00:20:16;;;;;;;;;;;;;;;2.05;81.06;97705.94;1783427;80;20557;-66
2021/04/27 00:22:44;;;;;;;;;;;;;;;1.98;81.70;97708.49;1783623;80;21949;-66
2021/04/27 00:25:12;;;;;;;;;;;;;;;1.98;82.20;97714.17;1783654;80;20486;-66
2021/04/27 00:27:41;;;;;;;;;;;;;;;2.07;81.90;97711.73;1783468;80;20510;-67
2021/04/27 00:30:10;;;;;;;;;;;;;;;2.12;82.33;97706.77;1783494;80;20514;-66
2021/04/27 00:32:39;;;;;;;;;;;;;;;2.21;80.02;97714.20;1783567;80;20811;-66
2021/04/27 00:35:08;;;;;;;;;;;;;;;2.29;80.44;97703.67;1783471;80;21721;-66
2021/04/27 00:37:36;;;;;;;;;;;;;;;2.32;79.50;97703.77;1783387;80;20494;-67
2021/04/27 00:40:05;;;;;;;;;;;;;;;2.35;79.16;97705.98;1783577;80;20492;-66
2021/04/27 00:42:35;;;;;;;;;;;;;;;2.42;78.30;97704.22;1783736;80;20542;-66
2021/04/27 00:45:05;;;;;;;;;;;;;;;2.49;78.74;97700.34;1747678;80;20732;-67
2021/04/27 00:47:33;;;;;;;;;;;;;;;2.52;77.48;97703.34;1783501;80;21900;-67
2021/04/27 00:50:01;;;;;;;;;;;;;;;2.61;76.81;97706.56;1783573;80;20483;-67
2021/04/27 00:52:29;;;;;;;;;;;;;;;2.68;75.70;97709.48;1783582;80;20499;-66
2021/04/27 00:54:57;;;;;;;;;;;;;;;2.73;75.19;97711.02;1783478;80;20486;-67
2021/04/27 00:57:25;;;;;;;;;;;;;;;2.77;75.08;97715.80;1783457;80;20807;-66
2021/04/27 00:59:55;;;;;;;;;;;;;;;2.78;74.81;97714.30;1783677;80;21860;-67
2021/04/27 01:02:22;;;;;;;;;;;;;;;2.81;74.66;97713.13;1772253;78;20581;-67
2021/04/27 01:04:51;;;;;;;;;;;;;;;2.84;74.60;97716.11;1775187;79;20473;-66
2021/04/27 01:07:19;;;;;;;;;;;;;;;2.85;74.82;97719.02;1775285;80;20488;-67
2021/04/27 01:09:53;;;;;;;;;;;;;;;2.87;74.68;97711.84;1770598;80;20766;-66
2021/04/27 01:12:23;;;;;;;;;;;;;;;2.90;74.03;97711.43;1761864;79;21885;-67
2021/04/27 01:15:21;;;;;;;;;;;;;;;2.93;73.64;97708.45;1759543;80;20479;-67
2021/04/27 01:17:49;;;;;;;;;;;;;;;2.96;73.23;97702.05;1733040;81;20491;-67
2021/04/27 01:20:19;;;;;;;;;;;;;;;2.97;73.06;97701.06;1756664;80;20484;-67
2021/04/27 01:23:10;;;;;;;;;;;;;;;2.98;72.95;97704.76;1734268;80;20623;-67
2021/04/27 01:25:42;;;;;;;;;;;;;;;2.99;72.84;97708.96;1756853;80;21939;-66
2021/04/27 01:28:11;;;;;;;;;;;;;;;3.00;72.92;97703.27;1760021;79;20543;-67
2021/04/27 01:30:40;;;;;;;;;;;;;;;2.99;72.78;97701.17;1756950;80;20496;-67
2021/04/27 01:33:21;;;;;;;;;;;;;;;3.00;72.99;97692.39;1756862;80;20511;-67
2021/04/27 01:35:49;;;;;;;;;;;;;;;3.01;74.11;97693.19;1756854;80;20545;-68
2021/04/27 01:38:18;;;;;;;;;;;;;;;3.00;75.72;97694.98;1757041;80;22148;-68
2021/04/27 01:40:48;;;;;;;;;;;;;;;2.98;76.03;97689.68;1756749;80;20280;-68
2021/04/27 01:43:17;;;;;;;;;;;;;;;2.92;76.78;97682.69;1756780;81;20503;-68
2021/04/27 01:45:48;;;;;;;;;;;;;;;2.80;77.60;97681.19;1756933;80;20584;-66
2021/04/27 01:48:16;;;;;;;;;;;;;;;2.75;77.70;97677.06;1756847;80;20501;-67
2021/04/27 01:50:44;;;;;;;;;;;;;;;2.73;77.75;97684.27;1757068;80;21168;-66
2021/04/27 01:53:31;;;;;;;;;;;;;;;2.72;77.98;97695.63;1756658;81;20504;-66
2021/04/27 01:56:01;;;;;;;;;;;;;;;2.70;77.93;97693.72;1757029;80;20231;-67
2021/04/27 01:58:30;;;;;;;;;;;;;;;2.71;78.26;97697.42;1733190;81;20558;-67
2021/04/27 02:00:59;;;;;;;;;;;;;;;2.70;79.47;97693.72;1756897;81;20719;-68
2021/04/27 02:03:28;;;;;;;;;;;;;;;2.67;79.51;97683.72;1771913;79;21783;-67
2021/04/27 02:06:14;;;;;;;;;;;;;;;2.65;79.73;97679.25;1778859;80;20678;-68
2021/04/27 02:08:49;;;;;;;;;;;;;;;2.63;80.10;97679.94;1779448;79;20227;-67
2021/04/27 02:11:18;;;;;;;;;;;;;;;2.61;80.83;97672.34;1778859;79;20487;-66
2021/04/27 02:13:46;;;;;;;;;;;;;;;2.63;80.55;97674.74;1775192;79;20692;-66
2021/04/27 02:16:14;;;;;;;;;;;;;;;2.63;80.34;97674.25;1778908;80;21888;-66
2021/04/27 02:18:53;;;;;;;;;;;;;;;2.61;80.29;97671.05;1778959;79;20479;-67
2021/04/27 02:21:22;;;;;;;;;;;;;;;2.56;80.00;97666.95;1778895;79;20518;-66
2021/04/27 02:24:10;;;;;;;;;;;;;;;2.50;79.74;97669.03;1778921;79;20730;-67
2021/04/27 02:26:40;;;;;;;;;;;;;;;2.49;79.87;97666.63;1755258;79;20565;-67
2021/04/27 02:29:09;;;;;;;;;;;;;;;2.49;79.97;97664.03;1777520;79;21838;-67
2021/04/27 02:31:38;;;;;;;;;;;;;;;2.47;80.08;97667.31;1778814;79;20502;-67
2021/04/27 02:34:06;;;;;;;;;;;;;;;2.41;81.25;97668.89;1752765;80;20514;-67
2021/04/27 02:36:37;;;;;;;;;;;;;;;2.34;81.78;97666.28;1778880;79;20482;-67
2021/04/27 02:39:10;;;;;;;;;;;;;;;2.26;82.06;97670.83;1779656;78;20593;-66
2021/04/27 02:41:38;;;;;;;;;;;;;;;2.16;82.41;97666.52;1779049;80;21830;-67
2021/04/27 02:44:11;;;;;;;;;;;;;;;2.05;83.35;97667.05;1775415;79;20641;-66
2021/04/27 02:46:39;;;;;;;;;;;;;;;1.96;83.84;97669.80;1778916;79;20502;-67
2021/04/27 02:49:10;;;;;;;;;;;;;;;1.93;84.31;97666.81;1778919;79;20607;-66
2021/04/27 02:51:40;;;;;;;;;;;;;;;1.91;84.88;97671.38;1778852;79;20535;-67
2021/04/27 02:54:09;;;;;;;;;;;;;;;1.87;85.45;97672.77;1779017;78;21893;-67
2021/04/27 02:56:38;;;;;;;;;;;;;;;1.80;85.97;97675.29;1778871;79;20483;-67
2021/04/27 02:59:06;;;;;;;;;;;;;;;1.73;86.76;97667.97;1778877;79;20511;-67
2021/04/27 03:01:35;;;;;;;;;;;;;;;1.65;87.10;97664.27;1775305;78;20318;-68
2021/04/27 03:04:05;;;;;;;;;;;;;;;1.60;87.47;97664.02;1778810;79;20622;-67
2021/04/27 03:06:38;;;;;;;;;;;;;;;1.52;87.50;97668.05;1753847;79;22117;-67
2021/04/27 03:09:08;;;;;;;;;;;;;;;1.51;87.70;97672.94;1778275;79;20490;-67
2021/04/27 03:11:38;;;;;;;;;;;;;;;1.49;88.15;97669.73;1778776;79;20491;-67
2021/04/27 03:14:06;;;;;;;;;;;;;;;1.49;88.39;97671.03;1778910;79;20503;-68
2021/04/27 03:16:35;;;;;;;;;;;;;;;1.50;88.52;97676.52;1779050;80;20607;-67
2021/04/27 03:19:04;;;;;;;;;;;;;;;1.54;88.23;97683.71;1778908;80;22059;-67
2021/04/27 03:21:34;;;;;;;;;;;;;;;1.58;88.02;97684.92;1779286;78;20688;-67
2021/04/27 03:24:02;;;;;;;;;;;;;;;1.62;88.18;97683.26;1778900;79;20490;-67
2021/04/27 03:26:30;;;;;;;;;;;;;;;1.66;88.49;97684.50;1779171;79;20483;-67
2021/04/27 03:29:12;;;;;;;;;;;;;;;1.68;88.90;97687.19;1779068;78;20561;-67
2021/04/27 03:31:42;;;;;;;;;;;;;;;1.72;89.51;97687.12;1778363;79;21848;-67
2021/04/27 03:34:10;;;;;;;;;;;;;;;1.77;89.48;97687.84;1778780;79;20578;-67
2021/04/27 03:36:38;;;;;;;;;;;;;;;1.76;89.87;97688.83;1778839;79;20491;-67
2021/04/27 03:39:06;;;;;;;;;;;;;;;1.74;90.73;97683.83;1778845;79;20490;-67
2021/04/27 03:41:34;;;;;;;;;;;;;;;1.81;90.98;97696.82;1778876;79;20604;-67
2021/04/27 03:44:02;;;;;;;;;;;;;;;1.85;90.67;97688.50;1779062;79;20735;-67
2021/04/27 03:46:31;;;;;;;;;;;;;;;1.91;90.89;97693.41;1778969;79;20487;-67
2021/04/27 03:48:59;;;;;;;;;;;;;;;1.94;91.34;97682.67;1778801;79;20629;-67
2021/04/27 03:51:29;;;;;;;;;;;;;;;2.00;91.51;97690.97;1778826;79;20684;-67
2021/04/27 03:53:59;;;;;;;;;;;;;;;2.03;91.74;97684.58;1778708;79;20510;-67
2021/04/27 03:56:31;;;;;;;;;;;;;;;2.01;91.81;97686.59;1778778;79;21993;-67
2021/04/27 03:59:00;;;;;;;;;;;;;;;1.96;92.00;97687.94;1778975;79;20612;-67
2021/04/27 04:01:31;;;;;;;;;;;;;;;1.94;92.67;97691.73;1778829;79;20632;-67
2021/04/27 04:03:59;;;;;;;;;;;;;;;2.02;92.12;97694.67;1778794;77;20483;-67
2021/04/27 04:06:27;;;;;;;;;;;;;;;2.09;91.17;97690.32;1778871;79;20577;-67
2021/04/27 04:09:07;;;;;;;;;;;;;;;2.19;90.60;97682.97;1779112;80;20946;-67
2021/04/27 04:11:52;;;;;;;;;;;;;;;2.24;90.44;97682.69;1779568;78;20275;-67
2021/04/27 04:14:20;;;;;;;;;;;;;;;2.34;88.66;97681.04;1778964;79;20561;-67
2021/04/27 04:16:53;;;;;;;;;;;;;;;2.42;87.73;97683.47;1778081;78;20486;-67
2021/04/27 04:19:21;;;;;;;;;;;;;;;2.56;87.16;97684.30;1779072;79;20586;-67
2021/04/27 04:21:51;;;;;;;;;;;;;;;2.65;86.50;97685.23;1777941;79;21891;-67
2021/04/27 04:24:19;;;;;;;;;;;;;;;2.70;86.13;97690.63;1778698;79;20483;-67
2021/04/27 04:26:48;;;;;;;;;;;;;;;2.77;85.44;97691.14;1779678;79;20211;-67
2021/04/27 04:29:34;;;;;;;;;;;;;;;2.85;84.98;97690.47;1778780;79;20492;-67
2021/04/27 04:32:22;;;;;;;;;;;;;;;2.92;84.46;97689.17;1717786;83;20642;-67
2021/04/27 04:35:16;;;;;;;;;;;;;;;3.01;84.51;97691.89;1875288;76;20663;-67
2021/04/27 04:37:58;;;;;;;;;;;;;;;3.00;84.40;97685.09;1802685;77;20526;-67
2021/04/27 04:40:30;;;;;;;;;;;;;;;3.05;83.55;97690.48;1771515;77;21907;-67
2021/04/27 04:43:17;;;;;;;;;;;;;;;3.11;82.96;97698.78;1843475;77;20774;-67
2021/04/27 04:46:04;;;;;;;;;;;;;;;3.15;82.24;97700.00;1843210;76;20584;-66
2021/04/27 04:48:50;;;;;;;;;;;;;;;3.17;82.02;97698.50;1842767;76;20545;-67
2021/04/27 04:51:21;;;;;;;;;;;;;;;3.18;82.81;97706.57;1842221;77;20596;-67
2021/04/27 04:53:50;;;;;;;;;;;;;;;3.21;81.73;97708.78;1842331;76;21914;-66
2021/04/27 04:56:18;;;;;;;;;;;;;;;3.25;82.05;97706.87;1843136;76;20529;-66
2021/04/27 04:58:46;;;;;;;;;;;;;;;3.32;81.99;97710.28;1840123;77;20585;-67
2021/04/27 05:01:14;;;;;;;;;;;;;;;3.40;82.29;97708.78;1843045;76;20526;-67
2021/04/27 05:03:51;;;;;;;;;;;;;;;3.51;82.12;97708.20;1842816;76;20737;-68
2021/04/27 05:06:38;;;;;;;;;;;;;;;3.63;81.42;97705.78;1826996;77;22310;-67
2021/04/27 05:09:23;;;;;;;;;;;;;;;3.74;81.31;97707.78;1834036;77;20475;-62
2021/04/27 05:11:57;;;;;;;;;;;;;;;3.85;80.02;97703.75;1819567;77;20474;-69
2021/04/27 05:14:35;;;;;;;;;;;;;;;3.92;80.20;97705.34;1814093;77;20479;-67
2021/04/27 05:17:04;;;;;;;;;;;;;;;4.01;80.13;97709.02;1821169;77;20543;-68
2021/04/27 05:19:33;;;;;;;;;;;;;;;4.12;79.71;97706.58;1842262;75;21878;-66
2021/04/27 05:22:05;;;;;;;;;;;;;;;4.19;79.48;97705.27;1838048;76;20682;-72
2021/04/27 05:24:33;;;;;;;;;;;;;;;4.28;79.46;97701.44;1822574;76;20259;-63
2021/04/27 05:27:05;;;;;;;;;;;;;;;4.41;78.38;97701.38;1817934;77;20490;-65
2021/04/27 05:29:34;;;;;;;;;;;;;;;4.52;77.29;97702.55;1821896;77;20872;-67
2021/04/27 05:32:02;;;;;;;;;;;;;;;4.61;74.74;97700.02;1819630;76;21883;-70
2021/04/27 05:34:30;;;;;;;;;;;;;;;4.68;69.94;97699.48;1813976;76;20514;-67
2021/04/27 05:36:59;;;;;;;;;;;;;;;4.73;69.78;97704.05;1821248;76;20243;-64
2021/04/27 05:39:27;;;;;;;;;;;;;;;4.78;69.03;97705.52;1830217;76;20589;-67
2021/04/27 05:41:55;;;;;;;;;;;;;;;4.82;69.38;97701.50;1831179;76;20602;-71
2021/04/27 05:44:23;;;;;;;;;;;;;;;4.86;69.86;97705.27;1831310;76;21888;-68
2021/04/27 05:47:01;;;;;;;;;;;;;;;4.89;68.94;97706.97;1827051;76;21118;-72
2021/04/27 05:49:29;;;;;;;;;;;;;;;4.94;69.49;97708.94;1827840;77;20565;-72
2021/04/27 05:51:57;;;;;;;;;;;;;;;4.97;67.58;97705.93;1829257;77;20707;-65
2021/04/27 05:54:25;;;;;;;;;;;;;;;5.03;68.54;97707.69;1824684;77;20607;-66
2021/04/27 05:56:55;;;;;;;;;;;;;;;5.10;67.85;97700.63;1822690;77;21888;-71
2021/04/27 05:59:25;;;;;;;;;;;;;;;5.16;67.77;97705.49;1818507;76;20782;-67
2021/04/27 06:01:52;;;;;;;;;;;;;;;5.19;67.02;97702.48;1831759;77;20391;-64
2021/04/27 06:04:21;;;;;;;;;;;;;;;5.26;67.03;97706.60;1824223;77;20475;-69
2021/04/27 06:06:49;;;;;;;;;;;;;;;5.29;66.23;97700.19;1825037;77;20483;-67
2021/04/27 06:09:17;;;;;;;;;;;;;;;5.34;67.26;97701.13;1828692;75;22077;-70
2021/04/27 06:11:46;;;;;;;;;;;;;;;5.44;66.41;97699.36;1823778;76;20582;-68
2021/04/27 06:14:14;;;;;;;;;;;;;;;5.49;64.11;97702.92;1826910;76;21012;-72
2021/04/27 06:16:45;;;;;;;;;;;;;;;5.50;64.50;97703.72;1828169;76;20292;-71
2021/04/27 06:19:14;;;;;;;;;;;;;;;5.56;63.30;97708.08;1830107;77;20741;-70
2021/04/27 06:21:43;;;;;;;;;;;;;;;5.56;62.76;97709.38;1824883;77;21903;-71
2021/04/27 06:24:11;;;;;;;;;;;;;;;5.55;62.11;97713.00;1831216;77;20415;-71
2021/04/27 06:26:38;;;;;;;;;;;;;;;5.56;60.57;97717.20;1829880;77;20158;-69
2021/04/27 06:29:06;;;;;;;;;;;;;;;5.55;59.54;97715.60;1825020;77;20526;-67
2021/04/27 06:31:33;;;;;;;;;;;;;;;5.56;59.58;97712.49;1825655;76;20672;-70
2021/04/27 06:34:01;;;;;;;;;;;;;;;5.63;59.70;97711.92;1822099;77;22390;-71
2021/04/27 06:36:32;;;;;;;;;;;;;;;5.72;59.88;97710.66;1802400;76;21061;-69
2021/04/27 06:39:00;;;;;;;;;;;;;;;5.85;60.35;97714.44;1826630;76;20576;-73
2021/04/27 06:41:32;;;;;;;;;;;;;;;6.03;60.80;97712.41;1829158;77;20572;-71
2021/04/27 06:44:01;;;;;;;;;;;;;;;6.22;60.08;97711.39;1822605;77;20610;-65
2021/04/27 06:46:29;;;;;;;;;;;;;;;6.33;60.00;97714.59;1824424;77;21189;-69
2021/04/27 06:48:59;;;;;;;;;;;;;;;6.38;59.12;97702.98;1823799;76;20316;-71
2021/04/27 06:51:27;;;;;;;;;;;;;;;6.41;57.56;97706.98;1825471;76;20488;-63
2021/04/27 06:53:54;;;;;;;;;;;;;;;6.39;58.63;97704.58;1823706;76;20663;-67
2021/04/27 06:56:24;;;;;;;;;;;;;;;6.43;59.56;97708.33;1825768;77;20469;-71
2021/04/27 06:58:51;;;;;;;;;;;;;;;6.52;59.69;97710.14;1823163;76;22420;-69
2021/04/27 07:01:21;;;;;;;;;;;;;;;6.62;59.62;97703.39;1824520;77;20483;-62
2021/04/27 07:03:49;;;;;;;;;;;;;;;6.70;59.38;97702.27;1829823;76;20827;-69
2021/04/27 07:06:16;;;;;;;;;;;;;;;6.70;58.79;97706.19;1833702;76;20478;-68
2021/04/27 07:08:45;;;;;;;;;;;;;;;6.69;59.58;97710.34;1831121;76;20587;-68
2021/04/27 07:11:12;;;;;;;;;;;;;;;6.70;59.66;97710.10;1823750;77;21853;-70
2021/04/27 07:13:42;;;;;;;;;;;;;;;6.72;59.21;97719.03;1827030;76;20485;-68
2021/04/27 07:16:15;;;;;;;;;;;;;;;6.66;57.71;97723.32;1828082;77;20494;-67
2021/04/27 07:18:42;;;;;;;;;;;;;;;6.60;57.60;97722.91;1824562;77;21045;-73
2021/04/27 07:21:11;;;;;;;;;;;;;;;6.52;58.39;97719.28;1830628;76;20616;-66
2021/04/27 07:23:40;;;;;;;;;;;;;;;6.46;59.05;97718.85;1827355;76;21167;-65
2021/04/27 07:26:08;;;;;;;;;;;;;;;6.45;59.99;97722.48;1824356;76;20612;-69
2021/04/27 07:28:37;;;;;;;;;;;;;;;6.43;59.46;97727.11;1826219;76;20644;-66
2021/04/27 07:31:05;;;;;;;;;;;;;;;6.40;58.61;97727.06;1825137;76;20296;-67
2021/04/27 07:33:33;;;;;;;;;;;;;;;6.33;58.69;97725.53;1829587;77;20765;-66
2021/04/27 07:36:01;;;;;;;;;;;;;;;6.28;58.43;97736.61;1829560;77;21995;-67
2021/04/27 07:38:31;;;;;;;;;;;;;;;6.18;58.71;97731.91;1822790;76;20598;-68
2021/04/27 07:40:59;;;;;;;;;;;;;;;6.13;59.40;97740.08;1815348;77;20513;-69
2021/04/27 07:43:30;;;;;;;;;;;;;;;6.10;59.00;97741.33;1822691;76;20474;-69
2021/04/27 07:45:59;;;;;;;;;;;;;;;6.07;59.52;97743.05;1823747;76;20548;-67
2021/04/27 07:48:27;;;;;;;;;;;;;;;6.08;59.93;97741.24;1827127;76;21866;-66
2021/04/27 07:50:55;;;;;;;;;;;;;;;6.05;61.09;97737.78;1826143;76;20482;-64
2021/04/27 07:53:23;;;;;;;;;;;;;;;5.98;61.40;97744.87;1822987;76;20593;-68
2021/04/27 07:55:51;;;;;;;;;;;;;;;5.96;62.09;97745.08;1825877;77;20624;-66
2021/04/27 07:58:19;;;;;;;;;;;;;;;5.93;62.80;97749.91;1786726;77;20580;-67
2021/04/27 08:00:54;;;;;;;;;;;;;;;5.91;62.76;97761.09;1773928;79;21901;-70
2021/04/27 08:03:30;;;;;;;;;;;;;;;5.92;63.62;97760.05;1803876;77;20543;-67
2021/04/27 08:06:00;;;;;;;;;;;;;;;5.83;63.08;97763.42;1779783;78;21008;-67
2021/04/27 08:08:28;;;;;;;;;;;;;;;5.73;63.01;97763.90;1777605;78;22008;-68
2021/04/27 08:10:57;;;;;;;;;;;;;;;5.66;63.08;97764.97;1747443;79;20664;-70
2021/04/27 08:13:26;;;;;;;;;;;;;;;5.67;63.13;97764.76;1782724;78;20564;-71
2021/04/27 08:15:54;;;;;;;;;;;;;;;5.66;63.13;97762.36;1780503;78;20138;-68
2021/04/27 08:18:24;;;;;;;;;;;;;;;5.68;63.10;97759.84;1779960;78;20737;-65
2021/04/27 08:20:56;;;;;;;;;;;;;;;5.75;62.91;97761.89;1781289;78;22108;-67
2021/04/27 08:35:09;;;;;;;;;;;;;;;6.81;61.67;97769.45;1733901;80;20807;-64
2021/04/27 08:37:38;;;;;;;;;;;;;;;6.89;60.68;97775.67;1732544;81;21149;-67
2021/04/27 08:40:09;;;;;;;;;;;;;;;6.86;61.18;97776.10;1725555;81;22089;-67
2021/04/27 08:42:37;;;;;;;;;;;;;;;6.87;60.36;97775.59;1725336;81;20488;-67
2021/04/27 08:45:08;;;;;;;;;;;;;;;6.91;59.97;97780.69;1725301;81;20406;-67
2021/04/27 08:47:36;;;;;;;;;;;;;;;6.96;59.70;97772.47;1727909;81;20579;-67
2021/04/27 08:50:06;;;;;;;;;;;;;;;7.05;59.41;97769.84;1723523;81;20556;-71
2021/04/27 08:52:36;;;;;;;;;;;;;;;7.19;58.93;97765.74;1728980;81;21777;-67
2021/04/27 08:55:05;;;;;;;;;;;;;;;7.36;59.30;97767.48;1690695;81;21417;-68
2021/04/27 08:57:34;;;;;;;;;;;;;;;7.54;59.87;97773.67;1685885;83;20540;-67
2021/04/27 09:00:08;;;;;;;;;;;;;;;7.67;57.96;97763.80;1679781;83;20735;-69
2021/04/27 09:02:46;;;;;;;;;;;;;;;7.74;57.21;97765.80;1682490;82;20588;-68
2021/04/27 09:05:24;;;;;;;;;;;;;;;7.74;57.29;97763.70;1657076;85;22601;-66
2021/04/27 09:07:53;;;;;;;;;;;;;;;7.77;57.15;97761.44;1652796;85;20493;-68
2021/04/27 09:10:28;;;;;;;;;;;;;;;7.82;57.52;97764.67;1655488;84;20548;-69
2021/04/27 09:12:58;;;;;;;;;;;;;;;7.79;56.91;97764.61;1652146;84;20532;-67
2021/04/27 09:15:36;;;;;;;;;;;;;;;7.81;57.71;97764.39;1652226;85;20508;-69
2021/04/27 09:18:36;;;;;;;;;;;;;;;7.79;58.28;97761.19;1654662;85;21364;-67
2021/04/27 09:21:09;;;;;;;;;;;;;;;7.78;57.66;97760.93;1658032;84;20556;-69
2021/04/27 09:23:40;;;;;;;;;;;;;;;7.92;58.92;97764.92;1656538;85;20415;-67
2021/04/27 09:26:11;;;;;;;;;;;;;;;8.11;58.56;97756.44;1596654;86;31722;-68
2021/04/27 09:28:41;;;;;;;;;;;;;;;8.29;58.07;97752.36;1618679;85;20845;-65
2021/04/27 09:31:29;;;;;;;;;;;;;;;8.43;57.77;97752.97;1618841;86;21823;-67
2021/04/27 09:34:19;;;;;;;;;;;;;;;8.53;56.47;97751.85;1625164;86;21809;-69
2021/04/27 09:36:49;;;;;;;;;;;;;;;8.57;55.94;97753.77;1636264;85;20688;-67
2021/04/27 09:39:23;;;;;;;;;;;;;;;8.61;58.58;97753.60;1633758;85;20373;-67
2021/04/27 09:42:04;;;;;;;;;;;;;;;8.68;56.25;97750.05;1631214;85;21101;-68
2021/04/27 09:44:44;;;;;;;;;;;;;;;8.70;54.89;97745.38;1847080;75;20611;-67
2021/04/27 09:47:27;;;;;;;;;;;;;;;8.60;54.92;97746.77;1825871;76;20964;-68
2021/04/27 09:50:10;;;;;;;;;;;;;;;8.63;55.45;97756.00;1822026;76;20794;-66
2021/04/27 09:52:45;;;;;;;;;;;;;;;8.68;57.10;97747.43;1817907;76;20560;-68
2021/04/27 09:55:17;;;;;;;;;;;;;;;8.74;57.93;97746.50;1827487;76;20671;-64
2021/04/27 09:57:50;;;;;;;;;;;;;;;8.84;57.52;97748.02;1826506;77;20488;-65
2021/04/27 10:00:52;;;;;;;;;;;;;;;8.85;57.23;97746.98;1837604;77;20668;-62
2021/04/27 10:03:33;;;;;;;;;;;;;;;8.73;57.51;97750.94;1703183;81;21982;-63
2021/04/27 10:06:13;;;;;;;;;;;;;;;8.63;57.94;97748.66;1676443;82;20482;-66
2021/04/27 10:08:44;;;;;;;;;;;;;;;8.59;57.02;97748.30;1687210;82;20486;-64
2021/04/27 10:11:26;;;;;;;;;;;;;;;8.46;57.47;97749.88;1691424;82;20662;-66
2021/04/27 10:14:00;;;;;;;;;;;;;;;8.37;58.59;97742.88;1693024;82;20484;-71
2021/04/27 10:16:28;;;;;;;;;;;;;;;8.36;58.87;97744.41;1707414;81;21968;-67
2021/04/27 10:19:04;;;;;;;;;;;;;;;8.43;58.67;97741.19;1701831;82;20942;-68
2021/04/27 10:21:36;;;;;;;;;;;;;;;8.49;60.96;97740.26;1692503;82;20556;-67
2021/04/27 10:24:08;;;;;;;;;;;;;;;8.70;59.95;97741.45;1691939;82;20507;-69
2021/04/27 10:26:41;;;;;;;;;;;;;;;8.81;58.77;97743.23;1695919;82;20789;-71
2021/04/27 10:29:20;;;;;;;;;;;;;;;8.90;57.67;97747.88;1736997;80;21448;-67
2021/04/27 10:32:08;;;;;;;;;;;;;;;8.93;56.99;97750.01;1688819;81;20552;-68
2021/04/27 10:34:36;;;;;;;;;;;;;;;9.00;57.36;97748.59;1715170;81;20211;-71
2021/04/27 10:37:06;;;;;;;;;;;;;;;9.08;56.69;97746.11;1715197;81;20297;-71
2021/04/27 10:39:40;;;;;;;;;;;;;;;9.12;57.54;97748.02;1714923;81;20697;-68
2021/04/27 10:42:19;;;;;;;;;;;;;;;9.17;57.25;97746.78;1711952;81;21181;-71
2021/04/27 10:44:55;;;;;;;;;;;;;;;9.20;56.20;97749.46;1712611;81;20494;-72
2021/04/27 10:47:23;;;;;;;;;;;;;;;9.05;54.56;97743.94;1713017;82;20576;-72
2021/04/27 10:49:56;;;;;;;;;;;;;;;8.86;55.17;97743.34;1717049;81;20594;-70
2021/04/27 10:52:35;;;;;;;;;;;;;;;8.73;56.19;97745.70;1717824;81;20644;-66
2021/04/27 10:55:27;;;;;;;;;;;;;;;8.62;55.32;97745.23;1688835;82;22066;-71
2021/04/27 10:57:57;;;;;;;;;;;;;;;8.39;54.75;97747.38;1717827;81;20969;-71
2021/04/27 11:00:40;;;;;;;;;;;;;;;8.13;55.73;97750.47;1713445;81;20321;-72
2021/04/27 11:03:16;;;;;;;;;;;;;;;7.97;55.71;97752.45;1716096;82;20314;-68
2021/04/27 11:06:00;;;;;;;;;;;;;;;7.82;56.08;97746.36;1713658;82;20480;-66
2021/04/27 11:08:44;;;;;;;;;;;;;;;7.69;55.99;97741.35;1715514;82;20447;-70
2021/04/27 11:11:24;;;;;;;;;;;;;;;7.58;55.89;97746.04;1717212;81;21164;-70
2021/04/27 11:13:54;;;;;;;;;;;;;;;7.48;57.13;97746.61;1715592;81;20540;-74
2021/04/27 11:16:29;;;;;;;;;;;;;;;7.46;58.56;97751.27;1713022;82;20267;-71
2021/04/27 11:19:21;;;;;;;;;;;;;;;7.50;59.09;97747.16;1708695;82;20767;-71
2021/04/27 11:21:53;;;;;;;;;;;;;;;7.53;58.58;97745.42;1696789;82;22065;-73
2021/04/27 11:24:37;;;;;;;;;;;;;;;7.55;58.31;97748.61;1717496;82;20527;-71
2021/04/27 11:27:13;;;;;;;;;;;;;;;7.53;58.65;97753.27;1719576;81;20491;-66
2021/04/27 11:29:41;;;;;;;;;;;;;;;7.54;58.86;97756.68;1704574;82;20236;-68
2021/04/27 11:32:13;;;;;;;;;;;;;;;7.57;59.13;97754.39;1674938;81;20754;-68
2021/04/27 11:35:16;;;;;;;;;;;;;;;7.59;58.97;97758.10;1709594;81;22141;-69
2021/04/27 11:37:52;;;;;;;;;;;;;;;7.59;58.27;97754.17;1713338;81;20757;-67
2021/04/27 11:40:42;;;;;;;;;;;;;;;7.59;58.66;97755.48;1715273;82;20571;-64
2021/04/27 11:43:12;;;;;;;;;;;;;;;7.63;59.08;97761.37;1727390;80;20390;-69
2021/04/27 11:45:52;;;;;;;;;;;;;;;7.64;58.84;97760.32;1725120;81;20788;-71
2021/04/27 11:48:23;;;;;;;;;;;;;;;7.69;58.11;97762.28;1721000;81;22064;-70
2021/04/27 11:50:51;;;;;;;;;;;;;;;7.69;57.67;97764.89;1732874;81;20480;-72
2021/04/27 11:53:21;;;;;;;;;;;;;;;7.60;57.73;97763.62;1718288;81;20285;-70
2021/04/27 11:55:50;;;;;;;;;;;;;;;7.49;58.54;97760.48;1725629;81;20618;-72
2021/04/27 11:58:22;;;;;;;;;;;;;;;7.37;59.16;97767.78;1743256;81;20599;-68
2021/04/27 12:01:00;;;;;;;;;;;;;;;7.29;58.89;97768.09;1706763;81;21932;-69
2021/04/27 12:03:32;;;;;;;;;;;;;;;7.27;59.64;97764.92;1716399;81;20467;-67
2021/04/27 12:06:14;;;;;;;;;;;;;;;7.40;59.31;97766.55;1715456;81;20402;-70
2021/04/27 12:08:46;;;;;;;;;;;;;;;7.57;59.11;97754.39;1736754;81;20658;-71
2021/04/27 12:11:17;;;;;;;;;;;;;;;7.79;58.92;97755.45;1742825;80;20591;-65
2021/04/27 12:13:54;;;;;;;;;;;;;;;8.11;59.91;97749.38;1735458;81;21988;-67
2021/04/27 12:16:25;;;;;;;;;;;;;;;8.58;58.66;97749.33;1747073;81;20488;-70
2021/04/27 12:19:05;;;;;;;;;;;;;;;8.92;56.91;97748.95;1751442;81;20567;-74
2021/04/27 12:21:48;;;;;;;;;;;;;;;9.10;56.94;97745.34;1733854;81;20247;-68
2021/04/27 12:24:35;;;;;;;;;;;;;;;9.27;55.97;97739.11;1744277;80;20813;-77
2021/04/27 12:27:10;;;;;;;;;;;;;;;9.38;55.70;97744.00;1745926;80;22149;-69
2021/04/27 12:29:40;;;;;;;;;;;;;;;9.50;55.44;97735.56;1747177;81;20608;-68
2021/04/27 12:32:15;;;;;;;;;;;;;;;9.74;55.13;97737.48;1715921;82;20415;-70
2021/04/27 12:34:58;;;;;;;;;;;;;;;10.01;55.11;97729.22;1749295;80;20470;-70
2021/04/27 12:37:29;;;;;;;;;;;;;;;10.25;54.49;97733.00;1731472;81;20757;-67
2021/04/27 12:39:58;;;;;;;;;;;;;;;10.38;54.36;97730.02;1730153;81;22045;-71
2021/04/27 12:42:30;;;;;;;;;;;;;;;10.47;53.15;97732.50;1742734;80;20470;-67
2021/04/27 12:45:09;;;;;;;;;;;;;;;10.52;52.74;97728.61;1732340;80;20209;-68
2021/04/27 12:47:38;;;;;;;;;;;;;;;10.69;51.78;97724.61;1728808;81;20372;-64
2021/04/27 12:50:18;;;;;;;;;;;;;;;10.77;51.64;97721.03;1739331;80;20618;-68
2021/04/27 12:52:53;;;;;;;;;;;;;;;10.79;51.12;97718.96;1707273;81;22080;-69
2021/04/27 12:55:23;;;;;;;;;;;;;;;10.77;50.90;97722.34;1700256;82;20690;-66
2021/04/27 12:57:53;;;;;;;;;;;;;;;10.70;50.23;97713.06;1741067;79;20322;-69
2021/04/27 13:00:22;;;;;;;;;;;;;;;10.65;51.54;97724.33;1742768;79;20651;-69
2021/04/27 13:02:50;;;;;;;;;;;;;;;10.62;51.77;97721.37;1744672;79;20803;-71
2021/04/27 13:05:25;;;;;;;;;;;;;;;10.54;51.77;97722.59;1722711;80;22056;-69
2021/04/27 13:08:06;;;;;;;;;;;;;;;10.51;51.95;97721.80;1741633;80;20740;-73
2021/04/27 13:10:45;;;;;;;;;;;;;;;10.42;50.84;97716.16;1746838;80;20139;-69
2021/04/27 13:13:22;;;;;;;;;;;;;;;10.36;50.43;97719.77;1745629;80;20398;-68
2021/04/27 13:15:53;;;;;;;;;;;;;;;10.32;51.05;97717.85;1746873;80;20666;-71
2021/04/27 13:18:22;;;;;;;;;;;;;;;10.30;51.63;97723.34;1750372;80;21016;-67
2021/04/27 13:20:53;;;;;;;;;;;;;;;10.27;50.46;97715.97;1734361;80;20506;-70
2021/04/27 13:23:30;;;;;;;;;;;;;;;10.23;50.41;97717.47;1749842;80;20223;-70
2021/04/27 13:26:03;;;;;;;;;;;;;;;10.20;50.78;97715.35;1750340;79;20646;-68
2021/04/27 13:28:35;;;;;;;;;;;;;;;10.18;50.41;97710.85;1743466;80;20706;-71
2021/04/27 13:31:04;;;;;;;;;;;;;;;10.09;50.95;97709.13;1747290;79;20914;-71
2021/04/27 13:33:35;;;;;;;;;;;;;;;10.02;51.05;97711.12;1752922;80;20828;-68